Time,TemperatureF,DewpointF,PressureIn,WindDirection,WindDirectionDegrees,WindSpeedMPH,WindSpeedGustMPH,Humidity,HourlyPrecipIn,Conditions,Clouds,dailyrainin,SolarRadiationWatts/m^2,SoftwareType,DateUTC
2013-02-27 00:00:00,43.0,39.9,29.94,SSW,210,0.0,0.0,89,0.00,,,0.00,0.0,meteohub,2013-02-27 06:00:00,
2013-02-27 00:05:00,43.0,39.9,29.94,SSW,210,0.0,0.0,89,0.00,,,0.00,0.0,meteohub,2013-02-27 06:05:00,
2013-02-27 00:10:00,42.8,39.7,29.95,SSW,210,0.0,0.0,89,0.00,,,0.00,0.0,meteohub,2013-02-27 06:10:00,
2013-02-27 00:16:00,43.0,39.9,29.95,SSW,210,0.0,0.0,89,0.00,,,0.00,0.0,meteohub,2013-02-27 06:16:00,
2013-02-27 00:21:00,42.8,39.7,29.94,SSW,210,0.0,0.0,89,0.00,,,0.00,0.0,meteohub,2013-02-27 06:21:00,
2013-02-27 00:26:00,42.4,39.4,29.94,SSW,210,0.0,0.0,89,0.00,,,0.00,0.0,meteohub,2013-02-27 06:26:00,
2013-02-27 00:31:00,42.4,39.4,29.94,SSW,210,0.0,0.0,89,0.00,,,0.00,0.0,meteohub,2013-02-27 06:31:00,
2013-02-27 00:36:00,42.4,39.7,29.94,SSW,210,0.0,0.0,90,0.00,,,0.00,0.0,meteohub,2013-02-27 06:36:00,
2013-02-27 00:41:00,42.4,39.7,29.94,SSW,210,0.0,0.0,90,0.00,,,0.00,0.0,meteohub,2013-02-27 06:41:00,
2013-02-27 00:46:00,42.3,39.6,29.94,SSW,210,0.0,0.0,90,0.00,,,0.00,0.0,meteohub,2013-02-27 06:46:00,
2013-02-27 00:51:00,42.3,39.6,29.94,SSW,210,0.0,0.0,90,0.00,,,0.00,0.0,meteohub,2013-02-27 06:51:00,
2013-02-27 00:56:00,42.1,39.4,29.94,SSW,210,0.0,0.0,90,0.00,,,0.00,0.0,meteohub,2013-02-27 06:56:00,
2013-02-27 01:01:00,42.1,39.4,29.94,SSW,210,0.0,0.0,90,0.00,,,0.00,0.0,meteohub,2013-02-27 07:01:00,
2013-02-27 01:06:00,41.9,39.2,29.94,SSW,210,0.0,0.0,90,0.00,,,0.00,0.0,meteohub,2013-02-27 07:06:00,
2013-02-27 01:11:00,41.5,38.8,29.95,SSW,210,0.0,0.0,90,0.00,,,0.00,0.0,meteohub,2013-02-27 07:11:00,
2013-02-27 01:16:00,41.5,39.2,29.94,SSW,210,0.0,0.0,91,0.00,,,0.00,0.0,meteohub,2013-02-27 07:16:00,
2013-02-27 01:21:00,41.5,39.2,29.94,SSW,210,0.0,0.0,91,0.00,,,0.00,0.0,meteohub,2013-02-27 07:21:00,
2013-02-27 01:26:00,41.4,39.0,29.94,SSW,210,0.0,0.0,91,0.00,,,0.00,0.0,meteohub,2013-02-27 07:26:00,
2013-02-27 01:31:00,41.4,39.2,29.95,SSW,210,0.0,0.0,92,0.00,,,0.00,0.0,meteohub,2013-02-27 07:31:00,
2013-02-27 01:36:00,41.5,39.4,29.95,SSW,210,0.0,0.0,92,0.00,,,0.00,0.0,meteohub,2013-02-27 07:36:00,
2013-02-27 01:41:00,41.4,39.2,29.95,SSW,210,0.0,0.0,92,0.00,,,0.00,0.0,meteohub,2013-02-27 07:41:00,
2013-02-27 01:46:00,41.4,39.6,29.95,SSW,210,0.0,0.0,93,0.00,,,0.00,0.0,meteohub,2013-02-27 07:46:00,
2013-02-27 01:51:00,41.2,39.4,29.95,SSW,210,0.0,0.0,93,0.00,,,0.00,0.0,meteohub,2013-02-27 07:51:00,
2013-02-27 01:56:00,40.8,39.0,29.95,SSW,210,0.0,0.0,93,0.00,,,0.00,0.0,meteohub,2013-02-27 07:56:00,
2013-02-27 02:01:00,41.0,39.2,29.95,SSW,210,0.0,0.0,93,0.00,,,0.00,0.0,meteohub,2013-02-27 08:01:00,
2013-02-27 02:06:00,40.8,39.0,29.95,SSW,210,0.0,0.0,93,0.00,,,0.00,0.0,meteohub,2013-02-27 08:06:00,
2013-02-27 02:11:00,40.6,39.0,29.95,SSW,210,0.0,0.0,94,0.00,,,0.00,0.0,meteohub,2013-02-27 08:11:00,
2013-02-27 02:16:00,40.6,39.0,29.94,SSW,210,0.0,0.0,94,0.00,,,0.00,0.0,meteohub,2013-02-27 08:16:00,
2013-02-27 02:21:00,40.6,39.0,29.94,SSW,210,0.0,0.0,94,0.00,,,0.00,0.0,meteohub,2013-02-27 08:21:00,
2013-02-27 02:26:00,40.5,38.8,29.94,SSW,210,0.0,0.0,94,0.00,,,0.00,0.0,meteohub,2013-02-27 08:26:00,
2013-02-27 02:31:00,40.5,38.8,29.94,SSW,210,0.0,0.0,94,0.00,,,0.00,0.0,meteohub,2013-02-27 08:31:00,
2013-02-27 02:36:00,40.3,38.7,29.94,SSW,210,0.0,0.0,94,0.00,,,0.00,0.0,meteohub,2013-02-27 08:36:00,
2013-02-27 02:41:00,40.1,38.5,29.94,SSW,210,0.0,0.0,94,0.00,,,0.00,0.0,meteohub,2013-02-27 08:41:00,
2013-02-27 02:46:00,39.9,38.3,29.94,SSW,210,0.0,0.0,94,0.00,,,0.00,0.0,meteohub,2013-02-27 08:46:00,
2013-02-27 02:51:00,39.7,38.1,29.94,SSW,210,0.0,0.0,94,0.00,,,0.00,0.0,meteohub,2013-02-27 08:51:00,
2013-02-27 02:56:00,39.6,37.9,29.94,SSW,210,0.0,0.0,94,0.00,,,0.00,0.0,meteohub,2013-02-27 08:56:00,
2013-02-27 03:01:00,39.7,38.1,29.93,SSW,210,0.0,0.0,94,0.00,,,0.00,0.0,meteohub,2013-02-27 09:01:00,
2013-02-27 03:06:00,39.4,37.8,29.94,SSW,210,0.0,0.0,94,0.00,,,0.00,0.0,meteohub,2013-02-27 09:06:00,
2013-02-27 03:11:00,39.4,37.8,29.93,SSW,210,0.0,0.0,94,0.00,,,0.00,0.0,meteohub,2013-02-27 09:11:00,
2013-02-27 03:16:00,39.4,37.8,29.93,SSW,210,0.0,0.0,94,0.00,,,0.00,0.0,meteohub,2013-02-27 09:16:00,
2013-02-27 03:21:00,39.2,37.6,29.93,SSW,210,0.0,0.0,94,0.00,,,0.00,0.0,meteohub,2013-02-27 09:21:00,
2013-02-27 03:26:00,39.0,37.4,29.94,SSW,210,0.0,0.0,94,0.00,,,0.00,0.0,meteohub,2013-02-27 09:26:00,
2013-02-27 03:31:00,39.0,37.4,29.94,SSW,210,0.0,0.0,94,0.00,,,0.00,0.0,meteohub,2013-02-27 09:31:00,
2013-02-27 03:36:00,38.8,37.2,29.93,SSW,210,0.0,0.0,94,0.00,,,0.00,0.0,meteohub,2013-02-27 09:36:00,
2013-02-27 03:41:00,38.8,37.2,29.93,SSW,210,0.0,0.0,94,0.00,,,0.00,0.0,meteohub,2013-02-27 09:41:00,
2013-02-27 03:46:00,39.0,37.4,29.93,SSW,210,0.0,0.0,94,0.00,,,0.00,0.0,meteohub,2013-02-27 09:46:00,
2013-02-27 03:51:00,39.0,37.4,29.93,SSW,210,0.0,0.0,94,0.00,,,0.00,0.0,meteohub,2013-02-27 09:51:00,
2013-02-27 03:56:00,39.0,37.4,29.93,SSW,210,0.0,0.0,94,0.00,,,0.00,0.0,meteohub,2013-02-27 09:56:00,
2013-02-27 04:01:00,38.8,37.2,29.93,SSW,210,0.0,0.0,94,0.00,,,0.00,0.0,meteohub,2013-02-27 10:01:00,
2013-02-27 04:06:00,38.7,37.0,29.93,SSW,210,0.0,0.0,94,0.00,,,0.00,0.0,meteohub,2013-02-27 10:06:00,
2013-02-27 04:12:00,38.7,37.0,29.94,SSW,210,0.0,0.0,94,0.00,,,0.00,0.0,meteohub,2013-02-27 10:12:00,
2013-02-27 04:17:00,38.5,36.9,29.94,SSW,210,0.0,0.0,94,0.00,,,0.00,0.0,meteohub,2013-02-27 10:17:00,
2013-02-27 04:22:00,38.7,37.0,29.94,SSW,210,0.0,0.0,94,0.00,,,0.00,0.0,meteohub,2013-02-27 10:22:00,
2013-02-27 04:27:00,38.5,36.9,29.94,SSW,210,0.0,0.0,94,0.00,,,0.00,0.0,meteohub,2013-02-27 10:27:00,
2013-02-27 04:32:00,38.5,36.9,29.94,SSW,210,0.0,0.0,94,0.00,,,0.00,0.0,meteohub,2013-02-27 10:32:00,
2013-02-27 04:37:00,38.5,37.2,29.94,SSW,210,0.0,0.0,95,0.00,,,0.00,0.0,meteohub,2013-02-27 10:37:00,
2013-02-27 04:42:00,38.5,37.2,29.94,SSW,210,0.0,0.0,95,0.00,,,0.00,0.0,meteohub,2013-02-27 10:42:00,
2013-02-27 04:47:00,38.3,37.0,29.94,SSW,210,0.0,0.0,95,0.00,,,0.00,0.0,meteohub,2013-02-27 10:47:00,
2013-02-27 04:52:00,38.3,37.0,29.94,SSW,210,0.0,0.0,95,0.00,,,0.00,0.0,meteohub,2013-02-27 10:52:00,
2013-02-27 04:57:00,38.3,37.0,29.94,SSW,210,0.0,0.0,95,0.00,,,0.00,0.0,meteohub,2013-02-27 10:57:00,
2013-02-27 05:02:00,38.1,36.5,29.94,SSW,210,0.0,0.0,94,0.00,,,0.00,0.0,meteohub,2013-02-27 11:02:00,
2013-02-27 05:07:00,38.1,36.5,29.94,SSW,210,0.0,0.0,94,0.00,,,0.00,0.0,meteohub,2013-02-27 11:07:00,
2013-02-27 05:12:00,37.9,36.3,29.94,SSW,210,0.0,0.0,94,0.00,,,0.00,0.0,meteohub,2013-02-27 11:12:00,
2013-02-27 05:17:00,37.9,36.7,29.94,SSW,210,0.0,0.0,95,0.00,,,0.00,0.0,meteohub,2013-02-27 11:17:00,
2013-02-27 05:22:00,37.8,36.5,29.94,SSW,210,0.0,0.0,95,0.00,,,0.00,0.0,meteohub,2013-02-27 11:22:00,
2013-02-27 05:27:00,37.8,36.1,29.94,SSW,210,0.0,0.0,94,0.00,,,0.00,0.0,meteohub,2013-02-27 11:27:00,
2013-02-27 05:32:00,37.9,36.7,29.93,SSW,210,0.0,0.0,95,0.00,,,0.00,0.0,meteohub,2013-02-27 11:32:00,
2013-02-27 05:37:00,37.9,36.7,29.93,SSW,210,0.0,0.0,95,0.00,,,0.00,0.0,meteohub,2013-02-27 11:37:00,
2013-02-27 05:42:00,37.9,36.7,29.93,SSW,210,0.0,0.0,95,0.00,,,0.00,0.0,meteohub,2013-02-27 11:42:00,
2013-02-27 05:47:00,37.9,36.7,29.93,SSW,210,0.0,0.0,95,0.00,,,0.00,0.0,meteohub,2013-02-27 11:47:00,
2013-02-27 05:52:00,37.8,36.5,29.93,SSW,210,0.0,0.0,95,0.00,,,0.00,0.0,meteohub,2013-02-27 11:52:00,
2013-02-27 05:57:00,37.8,36.5,29.93,SSW,210,0.0,0.0,95,0.00,,,0.00,0.0,meteohub,2013-02-27 11:57:00,
2013-02-27 06:02:00,37.6,36.3,29.93,SSW,210,0.0,0.0,95,0.00,,,0.00,0.0,meteohub,2013-02-27 12:02:00,
2013-02-27 06:07:00,37.6,36.3,29.93,SSW,210,0.0,0.0,95,0.00,,,0.00,0.0,meteohub,2013-02-27 12:07:00,
2013-02-27 06:12:00,37.6,36.3,29.93,SSW,210,0.0,0.0,95,0.00,,,0.00,0.0,meteohub,2013-02-27 12:12:00,
2013-02-27 06:17:00,37.6,36.3,29.93,SSW,210,0.0,0.0,95,0.00,,,0.00,0.0,meteohub,2013-02-27 12:17:00,
2013-02-27 06:22:00,37.4,36.1,29.94,SSW,210,0.0,0.0,95,0.00,,,0.00,0.0,meteohub,2013-02-27 12:22:00,
2013-02-27 06:27:00,37.2,36.0,29.94,SSW,210,0.0,0.0,95,0.00,,,0.00,0.0,meteohub,2013-02-27 12:27:00,
2013-02-27 06:32:00,37.0,35.8,29.94,SSW,210,0.0,0.0,95,0.00,,,0.00,0.0,meteohub,2013-02-27 12:32:00,
2013-02-27 06:37:00,37.0,35.8,29.95,SSW,210,0.0,0.0,95,0.00,,,0.00,0.0,meteohub,2013-02-27 12:37:00,
2013-02-27 06:42:00,37.0,35.8,29.96,SSW,210,0.0,0.0,95,0.00,,,0.00,0.0,meteohub,2013-02-27 12:42:00,
2013-02-27 06:47:00,36.9,35.6,29.96,SSW,210,0.0,0.0,95,0.00,,,0.00,5.0,meteohub,2013-02-27 12:47:00,
2013-02-27 06:52:00,36.9,35.6,29.96,SSW,210,0.0,0.0,95,0.00,,,0.00,11.0,meteohub,2013-02-27 12:52:00,
2013-02-27 06:57:00,36.9,35.6,29.96,SSW,210,0.0,0.0,95,0.00,,,0.00,18.0,meteohub,2013-02-27 12:57:00,
2013-02-27 07:02:00,36.9,35.6,29.96,SSW,210,0.0,0.0,95,0.00,,,0.00,19.0,meteohub,2013-02-27 13:02:00,
2013-02-27 07:07:00,37.0,35.8,29.96,SSW,210,0.0,0.0,95,0.00,,,0.00,23.0,meteohub,2013-02-27 13:07:00,
2013-02-27 07:12:00,37.4,36.1,29.96,SSW,210,0.0,1.0,95,0.00,,,0.00,30.0,meteohub,2013-02-27 13:12:00,
2013-02-27 07:17:00,37.8,36.7,29.96,SSW,210,0.0,1.0,96,0.00,,,0.00,37.0,meteohub,2013-02-27 13:17:00,
2013-02-27 07:22:00,38.5,37.4,29.97,SSW,210,0.0,1.0,96,0.00,,,0.00,39.0,meteohub,2013-02-27 13:22:00,
2013-02-27 07:27:00,38.8,37.8,29.97,SSW,210,0.0,1.0,96,0.00,,,0.00,42.0,meteohub,2013-02-27 13:27:00,
2013-02-27 07:33:00,39.4,38.3,29.98,SSW,210,0.0,1.0,96,0.00,,,0.00,42.0,meteohub,2013-02-27 13:33:00,
2013-02-27 07:38:00,39.7,38.7,29.98,SSW,210,0.0,1.0,96,0.00,,,0.00,63.0,meteohub,2013-02-27 13:38:00,
2013-02-27 07:43:00,40.3,39.2,29.99,SSW,210,0.0,1.0,96,0.00,,,0.00,93.0,meteohub,2013-02-27 13:43:00,
2013-02-27 07:48:00,41.0,39.9,29.99,SSW,210,0.0,0.0,96,0.00,,,0.00,167.0,meteohub,2013-02-27 13:48:00,
2013-02-27 07:53:00,41.7,40.5,29.99,SSW,210,0.0,0.0,95,0.00,,,0.00,209.0,meteohub,2013-02-27 13:53:00,
2013-02-27 07:58:00,42.6,41.4,30.00,SSW,210,0.0,0.0,95,0.00,,,0.00,227.0,meteohub,2013-02-27 13:58:00,
2013-02-27 08:03:00,43.5,41.9,30.00,SSW,210,0.0,1.0,94,0.00,,,0.00,260.0,meteohub,2013-02-27 14:03:00,
2013-02-27 08:08:00,44.8,42.6,30.00,SSW,210,0.0,1.0,92,0.00,,,0.00,279.0,meteohub,2013-02-27 14:08:00,
2013-02-27 08:13:00,45.5,42.8,30.00,SSW,209,0.0,1.0,90,0.00,,,0.00,301.0,meteohub,2013-02-27 14:13:00,
2013-02-27 08:18:00,46.6,42.6,30.00,South,176,0.0,1.0,86,0.00,,,0.00,309.0,meteohub,2013-02-27 14:18:00,
2013-02-27 08:23:00,47.5,42.6,30.01,South,176,0.0,1.0,83,0.00,,,0.00,315.0,meteohub,2013-02-27 14:23:00,
2013-02-27 08:28:00,48.7,42.8,30.01,South,176,0.0,1.0,80,0.00,,,0.00,322.0,meteohub,2013-02-27 14:28:00,
2013-02-27 08:33:00,49.6,43.3,30.01,South,176,0.0,1.0,79,0.00,,,0.00,330.0,meteohub,2013-02-27 14:33:00,
2013-02-27 08:38:00,50.2,43.0,30.01,South,176,0.0,1.0,76,0.00,,,0.00,353.0,meteohub,2013-02-27 14:38:00,
2013-02-27 08:43:00,50.9,42.3,30.02,SSE,154,0.0,1.0,72,0.00,,,0.00,376.0,meteohub,2013-02-27 14:43:00,
2013-02-27 08:48:00,51.6,42.4,30.01,East,86,0.0,1.0,71,0.00,,,0.00,411.0,meteohub,2013-02-27 14:48:00,
2013-02-27 08:53:00,52.9,43.0,30.01,ESE,104,0.0,1.0,69,0.00,,,0.00,432.0,meteohub,2013-02-27 14:53:00,
2013-02-27 08:58:00,53.8,42.6,30.02,ESE,110,3.0,3.0,66,0.00,,,0.00,464.0,meteohub,2013-02-27 14:58:00,
2013-02-27 09:03:00,54.0,41.7,30.02,ESE,111,0.0,1.0,63,0.00,,,0.00,478.0,meteohub,2013-02-27 15:03:00,
2013-02-27 09:08:00,54.7,41.0,30.02,ESE,111,0.0,1.0,60,0.00,,,0.00,480.0,meteohub,2013-02-27 15:08:00,
2013-02-27 09:13:00,55.0,41.9,30.03,ESE,114,0.0,4.0,61,0.00,,,0.00,480.0,meteohub,2013-02-27 15:13:00,
2013-02-27 09:18:00,55.6,41.9,30.03,ESE,114,0.0,4.0,60,0.00,,,0.00,482.0,meteohub,2013-02-27 15:18:00,
2013-02-27 09:23:00,55.9,41.9,30.03,SE,127,0.0,2.0,59,0.00,,,0.00,485.0,meteohub,2013-02-27 15:23:00,
2013-02-27 09:28:00,55.9,41.4,30.03,SE,127,1.0,2.0,58,0.00,,,0.00,497.0,meteohub,2013-02-27 15:28:00,
2013-02-27 09:33:00,56.7,43.0,30.03,SE,128,0.0,4.0,60,0.00,,,0.00,515.0,meteohub,2013-02-27 15:33:00,
2013-02-27 09:38:00,57.2,42.6,30.03,SE,127,3.0,4.0,58,0.00,,,0.00,536.0,meteohub,2013-02-27 15:38:00,
2013-02-27 09:43:00,57.7,42.6,30.03,SE,125,0.0,4.0,57,0.00,,,0.00,543.0,meteohub,2013-02-27 15:43:00,
2013-02-27 09:48:00,58.8,43.7,30.03,East,99,0.0,3.0,57,0.00,,,0.00,550.0,meteohub,2013-02-27 15:48:00,
2013-02-27 09:53:00,59.0,43.3,30.03,NE,49,0.0,3.0,56,0.00,,,0.00,547.0,meteohub,2013-02-27 15:53:00,
2013-02-27 09:58:00,59.4,42.8,30.02,SE,132,0.0,3.0,54,0.00,,,0.00,545.0,meteohub,2013-02-27 15:58:00,
2013-02-27 10:03:00,59.7,43.0,30.02,ESE,122,1.0,6.0,54,0.00,,,0.00,557.0,meteohub,2013-02-27 16:03:00,
2013-02-27 10:08:00,60.3,41.5,30.02,ESE,114,0.0,6.0,50,0.00,,,0.00,571.0,meteohub,2013-02-27 16:08:00,
2013-02-27 10:13:00,60.6,41.9,30.02,ESE,115,0.0,6.0,50,0.00,,,0.00,575.0,meteohub,2013-02-27 16:13:00,
2013-02-27 10:18:00,61.3,41.5,30.02,SE,128,4.0,5.0,48,0.00,,,0.00,577.0,meteohub,2013-02-27 16:18:00,
2013-02-27 10:23:00,61.2,40.3,30.02,SSE,165,2.0,5.0,46,0.00,,,0.00,580.0,meteohub,2013-02-27 16:23:00,
2013-02-27 10:28:00,61.5,40.5,30.02,SSE,158,0.0,7.0,46,0.00,,,0.00,575.0,meteohub,2013-02-27 16:28:00,
2013-02-27 10:34:00,61.7,40.6,30.02,SSE,154,0.0,7.0,46,0.00,,,0.00,571.0,meteohub,2013-02-27 16:34:00,
2013-02-27 10:39:00,61.5,41.2,30.02,SE,125,1.0,7.0,47,0.00,,,0.00,580.0,meteohub,2013-02-27 16:39:00,
2013-02-27 10:44:00,61.5,41.2,30.02,SE,126,0.0,6.0,47,0.00,,,0.00,589.0,meteohub,2013-02-27 16:44:00,
2013-02-27 10:49:00,62.6,41.0,30.02,SE,135,3.0,6.0,45,0.00,,,0.00,610.0,meteohub,2013-02-27 16:49:00,
2013-02-27 10:54:00,63.1,41.5,30.02,South,171,0.0,6.0,45,0.00,,,0.00,633.0,meteohub,2013-02-27 16:54:00,
2013-02-27 10:59:00,63.0,39.6,30.02,South,179,0.0,4.0,42,0.00,,,0.00,659.0,meteohub,2013-02-27 16:59:00,
2013-02-27 11:04:00,63.7,40.8,30.02,SSE,158,0.0,4.0,43,0.00,,,0.00,686.0,meteohub,2013-02-27 17:04:00,
2013-02-27 11:09:00,64.0,41.2,30.01,SSE,157,0.0,5.0,43,0.00,,,0.00,715.0,meteohub,2013-02-27 17:09:00,
2013-02-27 11:14:00,64.2,41.2,30.01,SSE,154,0.0,5.0,43,0.00,,,0.00,747.0,meteohub,2013-02-27 17:14:00,
2013-02-27 11:19:00,64.4,41.4,30.01,WSW,252,0.0,5.0,43,0.00,,,0.00,775.0,meteohub,2013-02-27 17:19:00,
2013-02-27 11:24:00,63.7,41.9,30.00,WSW,257,0.0,5.0,45,0.00,,,0.00,795.0,meteohub,2013-02-27 17:24:00,
2013-02-27 11:29:00,64.0,41.7,30.00,WSW,250,0.0,5.0,44,0.00,,,0.00,802.0,meteohub,2013-02-27 17:29:00,
2013-02-27 11:34:00,64.4,42.1,30.00,WSW,248,0.0,5.0,44,0.00,,,0.00,809.0,meteohub,2013-02-27 17:34:00,
2013-02-27 11:39:00,64.8,41.7,30.00,West,261,0.0,4.0,43,0.00,,,0.00,814.0,meteohub,2013-02-27 17:39:00,
2013-02-27 11:44:00,65.5,43.0,29.99,SSW,206,0.0,4.0,44,0.00,,,0.00,814.0,meteohub,2013-02-27 17:44:00,
2013-02-27 11:49:00,65.1,42.6,29.99,South,179,0.0,4.0,44,0.00,,,0.00,816.0,meteohub,2013-02-27 17:49:00,
2013-02-27 11:54:00,65.1,41.5,29.99,SW,221,4.0,6.0,42,0.00,,,0.00,817.0,meteohub,2013-02-27 17:54:00,
2013-02-27 11:59:00,66.0,40.3,29.99,South,172,0.0,6.0,39,0.00,,,0.00,821.0,meteohub,2013-02-27 17:59:00,
2013-02-27 12:04:00,66.6,40.8,29.99,SSW,194,0.0,6.0,39,0.00,,,0.00,823.0,meteohub,2013-02-27 18:04:00,
2013-02-27 12:09:00,67.5,43.0,29.98,SSW,195,3.0,5.0,41,0.00,,,0.00,826.0,meteohub,2013-02-27 18:09:00,
2013-02-27 12:14:00,67.1,43.2,29.98,South,190,0.0,5.0,42,0.00,,,0.00,828.0,meteohub,2013-02-27 18:14:00,
2013-02-27 12:19:00,67.3,42.8,29.98,South,188,0.0,5.0,41,0.00,,,0.00,828.0,meteohub,2013-02-27 18:19:00,
2013-02-27 12:24:00,67.3,42.1,29.98,WSW,257,3.0,7.0,40,0.00,,,0.00,830.0,meteohub,2013-02-27 18:24:00,
2013-02-27 12:29:00,67.6,41.7,29.97,SE,130,0.0,7.0,39,0.00,,,0.00,831.0,meteohub,2013-02-27 18:29:00,
2013-02-27 12:34:00,66.9,41.2,29.97,SSW,195,0.0,6.0,39,0.00,,,0.00,833.0,meteohub,2013-02-27 18:34:00,
2013-02-27 12:39:00,67.5,41.7,29.96,ESE,123,0.0,6.0,39,0.00,,,0.00,830.0,meteohub,2013-02-27 18:39:00,
2013-02-27 12:44:00,68.2,43.0,29.96,South,176,3.0,6.0,40,0.00,,,0.00,833.0,meteohub,2013-02-27 18:44:00,
2013-02-27 12:49:00,68.5,43.3,29.96,SSW,208,0.0,7.0,40,0.00,,,0.00,826.0,meteohub,2013-02-27 18:49:00,
2013-02-27 12:54:00,68.4,41.0,29.96,SW,235,0.0,7.0,37,0.00,,,0.00,824.0,meteohub,2013-02-27 18:54:00,
2013-02-27 12:59:00,68.0,42.8,29.96,SW,217,0.0,7.0,40,0.00,,,0.00,766.0,meteohub,2013-02-27 18:59:00,
2013-02-27 13:04:00,68.4,42.4,29.96,SW,233,0.0,7.0,39,0.00,,,0.00,802.0,meteohub,2013-02-27 19:04:00,
2013-02-27 13:09:00,68.5,41.9,29.96,SW,219,3.0,7.0,38,0.00,,,0.00,861.0,meteohub,2013-02-27 19:09:00,
2013-02-27 13:14:00,69.3,43.9,29.96,SSW,195,4.0,7.0,40,0.00,,,0.00,842.0,meteohub,2013-02-27 19:14:00,
2013-02-27 13:19:00,69.3,43.9,29.95,SSE,164,0.0,7.0,40,0.00,,,0.00,765.0,meteohub,2013-02-27 19:19:00,
2013-02-27 13:24:00,69.3,42.6,29.95,SSW,209,3.0,7.0,38,0.00,,,0.00,819.0,meteohub,2013-02-27 19:24:00,
2013-02-27 13:29:00,69.4,42.1,29.95,South,183,0.0,7.0,37,0.00,,,0.00,786.0,meteohub,2013-02-27 19:29:00,
2013-02-27 13:34:00,68.2,42.3,29.95,WSW,241,3.0,7.0,39,0.00,,,0.00,151.0,meteohub,2013-02-27 19:34:00,
2013-02-27 13:39:00,67.5,44.8,29.95,SW,215,0.0,7.0,44,0.00,,,0.00,844.0,meteohub,2013-02-27 19:39:00,
2013-02-27 13:45:00,67.3,43.3,29.95,WSW,239,3.0,7.0,42,0.00,,,0.00,199.0,meteohub,2013-02-27 19:45:00,
2013-02-27 13:50:00,67.5,43.0,29.95,West,262,0.0,7.0,41,0.00,,,0.00,482.0,meteohub,2013-02-27 19:50:00,
2013-02-27 13:55:00,67.8,42.6,29.95,SW,220,0.0,6.0,40,0.00,,,0.00,798.0,meteohub,2013-02-27 19:55:00,
2013-02-27 14:00:00,67.6,43.2,29.95,WSW,244,6.0,6.0,41,0.00,,,0.00,589.0,meteohub,2013-02-27 20:00:00,
2013-02-27 14:05:00,67.5,45.3,29.95,West,281,0.0,6.0,45,0.00,,,0.00,707.0,meteohub,2013-02-27 20:05:00,
2013-02-27 14:10:00,66.9,43.7,29.95,West,272,6.0,11.0,43,0.00,,,0.00,448.0,meteohub,2013-02-27 20:10:00,
2013-02-27 14:15:00,67.1,43.2,29.95,West,276,5.0,11.0,42,0.00,,,0.00,740.0,meteohub,2013-02-27 20:15:00,
2013-02-27 14:20:00,66.6,43.3,29.95,SW,236,4.0,11.0,43,0.00,,,0.00,241.0,meteohub,2013-02-27 20:20:00,
2013-02-27 14:25:00,65.7,43.2,29.95,West,280,4.0,12.0,44,0.00,,,0.00,195.0,meteohub,2013-02-27 20:25:00,
2013-02-27 14:30:00,65.1,43.3,29.95,WSW,253,4.0,12.0,45,0.00,,,0.00,213.0,meteohub,2013-02-27 20:30:00,
2013-02-27 14:35:00,64.9,43.2,29.95,WSW,246,1.0,7.0,45,0.00,,,0.00,279.0,meteohub,2013-02-27 20:35:00,
2013-02-27 14:40:00,65.1,43.9,29.95,West,262,2.0,7.0,46,0.00,,,0.00,223.0,meteohub,2013-02-27 20:40:00,
2013-02-27 14:45:00,65.3,43.3,29.95,West,260,5.0,7.0,45,0.00,,,0.00,246.0,meteohub,2013-02-27 20:45:00,
2013-02-27 14:50:00,65.1,44.4,29.95,WSW,237,3.0,7.0,47,0.00,,,0.00,585.0,meteohub,2013-02-27 20:50:00,
2013-02-27 14:55:00,65.7,44.2,29.95,WSW,256,3.0,6.0,46,0.00,,,0.00,411.0,meteohub,2013-02-27 20:55:00,
2013-02-27 15:00:00,65.7,44.2,29.95,West,276,4.0,6.0,46,0.00,,,0.00,369.0,meteohub,2013-02-27 21:00:00,
2013-02-27 15:05:00,65.1,43.9,29.95,SW,229,1.0,6.0,46,0.00,,,0.00,227.0,meteohub,2013-02-27 21:05:00,
2013-02-27 15:10:00,64.9,44.2,29.95,WSW,258,5.0,10.0,47,0.00,,,0.00,302.0,meteohub,2013-02-27 21:10:00,
2013-02-27 15:15:00,64.8,43.5,29.95,WSW,247,3.0,12.0,46,0.00,,,0.00,506.0,meteohub,2013-02-27 21:15:00,
2013-02-27 15:20:00,64.4,43.7,29.96,SSW,209,2.0,12.0,47,0.00,,,0.00,107.0,meteohub,2013-02-27 21:20:00,
2013-02-27 15:25:00,64.6,44.4,29.96,SW,214,1.0,12.0,48,0.00,,,0.00,79.0,meteohub,2013-02-27 21:25:00,
2013-02-27 15:30:00,65.1,44.4,29.96,SW,215,4.0,12.0,47,0.00,,,0.00,167.0,meteohub,2013-02-27 21:30:00,
2013-02-27 15:35:00,64.9,43.7,29.96,West,260,3.0,9.0,46,0.00,,,0.00,185.0,meteohub,2013-02-27 21:35:00,
2013-02-27 15:40:00,65.1,44.4,29.96,SW,219,4.0,9.0,47,0.00,,,0.00,200.0,meteohub,2013-02-27 21:40:00,
2013-02-27 15:45:00,64.8,44.1,29.96,SW,234,4.0,10.0,47,0.00,,,0.00,278.0,meteohub,2013-02-27 21:45:00,
2013-02-27 15:50:00,64.4,43.7,29.96,WSW,243,4.0,10.0,47,0.00,,,0.00,104.0,meteohub,2013-02-27 21:50:00,
2013-02-27 15:55:00,64.0,44.4,29.97,SW,225,3.0,11.0,49,0.00,,,0.00,139.0,meteohub,2013-02-27 21:55:00,
2013-02-27 16:00:00,63.9,44.2,29.97,SSW,197,4.0,11.0,49,0.00,,,0.00,134.0,meteohub,2013-02-27 22:00:00,
2013-02-27 16:05:00,63.1,43.2,29.97,WSW,237,5.0,12.0,48,0.00,,,0.00,220.0,meteohub,2013-02-27 22:05:00,
2013-02-27 16:10:00,63.1,43.7,29.97,SW,231,4.0,12.0,49,0.00,,,0.00,172.0,meteohub,2013-02-27 22:10:00,
2013-02-27 16:15:00,63.1,42.6,29.97,WSW,250,5.0,12.0,47,0.00,,,0.00,128.0,meteohub,2013-02-27 22:15:00,
2013-02-27 16:20:00,63.0,43.5,29.98,SW,228,2.0,12.0,49,0.00,,,0.00,123.0,meteohub,2013-02-27 22:20:00,
2013-02-27 16:25:00,63.0,43.5,29.98,WSW,246,0.0,12.0,49,0.00,,,0.00,137.0,meteohub,2013-02-27 22:25:00,
2013-02-27 16:30:00,63.0,43.5,29.98,WSW,242,3.0,12.0,49,0.00,,,0.00,167.0,meteohub,2013-02-27 22:30:00,
2013-02-27 16:35:00,62.8,42.8,29.98,WSW,239,6.0,8.0,48,0.00,,,0.00,206.0,meteohub,2013-02-27 22:35:00,
2013-02-27 16:40:00,62.4,43.0,29.98,SW,222,3.0,8.0,49,0.00,,,0.00,209.0,meteohub,2013-02-27 22:40:00,
2013-02-27 16:45:00,62.1,42.6,29.98,WSW,242,4.0,11.0,49,0.00,,,0.00,206.0,meteohub,2013-02-27 22:45:00,
2013-02-27 16:50:00,61.9,43.0,29.98,WSW,257,5.0,11.0,50,0.00,,,0.00,100.0,meteohub,2013-02-27 22:50:00,
2013-02-27 16:55:00,61.3,42.6,29.99,WSW,246,2.0,11.0,50,0.00,,,0.00,144.0,meteohub,2013-02-27 22:55:00,
2013-02-27 17:00:00,61.2,41.9,29.99,West,272,3.0,11.0,49,0.00,,,0.00,130.0,meteohub,2013-02-27 23:00:00,
2013-02-27 17:05:00,61.2,41.9,29.99,SW,233,3.0,13.0,49,0.00,,,0.00,128.0,meteohub,2013-02-27 23:05:00,
2013-02-27 17:10:00,61.0,41.2,29.99,SSW,200,6.0,13.0,48,0.00,,,0.00,70.0,meteohub,2013-02-27 23:10:00,
2013-02-27 17:15:00,60.6,40.8,29.99,WSW,242,4.0,9.0,48,0.00,,,0.00,72.0,meteohub,2013-02-27 23:15:00,
2013-02-27 17:20:00,60.4,40.6,29.99,West,261,3.0,9.0,48,0.00,,,0.00,37.0,meteohub,2013-02-27 23:20:00,
2013-02-27 17:26:00,60.3,41.0,29.99,West,260,2.0,10.0,49,0.00,,,0.00,26.0,meteohub,2013-02-27 23:26:00,
2013-02-27 17:31:00,60.1,40.8,29.99,SSW,194,3.0,10.0,49,0.00,,,0.00,23.0,meteohub,2013-02-27 23:31:00,
2013-02-27 17:36:00,59.7,39.9,29.99,WSW,245,4.0,10.0,48,0.00,,,0.00,21.0,meteohub,2013-02-27 23:36:00,
2013-02-27 17:41:00,59.4,40.3,29.99,WSW,242,6.0,10.0,49,0.00,,,0.00,18.0,meteohub,2013-02-27 23:41:00,
2013-02-27 17:46:00,59.0,38.8,29.99,WNW,289,7.0,11.0,47,0.00,,,0.00,16.0,meteohub,2013-02-27 23:46:00,
2013-02-27 17:51:00,59.0,39.4,30.00,WSW,250,3.0,11.0,48,0.00,,,0.00,12.0,meteohub,2013-02-27 23:51:00,
2013-02-27 17:56:00,58.8,39.2,30.00,WSW,252,3.0,10.0,48,0.00,,,0.00,7.0,meteohub,2013-02-27 23:56:00,
2013-02-27 18:01:00,58.6,39.0,30.01,WSW,244,1.0,10.0,48,0.00,,,0.00,5.0,meteohub,2013-02-28 00:01:00,
2013-02-27 18:06:00,58.3,38.7,30.01,SW,235,2.0,8.0,48,0.00,,,0.00,0.0,meteohub,2013-02-28 00:06:00,
2013-02-27 18:11:00,57.9,39.4,30.01,WSW,252,3.0,8.0,50,0.00,,,0.00,0.0,meteohub,2013-02-28 00:11:00,
2013-02-27 18:16:00,57.7,39.2,30.01,West,260,2.0,6.0,50,0.00,,,0.00,0.0,meteohub,2013-02-28 00:16:00,
2013-02-27 18:21:00,57.6,39.0,30.01,WSW,242,0.0,6.0,50,0.00,,,0.00,0.0,meteohub,2013-02-28 00:21:00,
2013-02-27 18:26:00,57.2,39.2,30.01,SW,230,0.0,6.0,51,0.00,,,0.00,0.0,meteohub,2013-02-28 00:26:00,
2013-02-27 18:31:00,56.8,39.4,30.01,SW,230,0.0,5.0,52,0.00,,,0.00,0.0,meteohub,2013-02-28 00:31:00,
2013-02-27 18:36:00,56.7,39.2,30.01,West,264,0.0,5.0,52,0.00,,,0.00,0.0,meteohub,2013-02-28 00:36:00,
2013-02-27 18:41:00,56.5,39.6,30.01,West,264,0.0,6.0,53,0.00,,,0.00,0.0,meteohub,2013-02-28 00:41:00,
2013-02-27 18:46:00,55.9,39.9,30.02,West,264,0.0,6.0,55,0.00,,,0.00,0.0,meteohub,2013-02-28 00:46:00,
2013-02-27 18:51:00,55.0,41.9,30.02,West,264,0.0,6.0,61,0.00,,,0.00,0.0,meteohub,2013-02-28 00:51:00,
2013-02-27 18:56:00,54.0,40.8,30.02,West,264,0.0,4.0,61,0.00,,,0.00,0.0,meteohub,2013-02-28 00:56:00,
2013-02-27 19:01:00,53.4,41.5,30.02,West,264,0.0,4.0,64,0.00,,,0.00,0.0,meteohub,2013-02-28 01:01:00,
2013-02-27 19:06:00,52.9,41.9,30.02,West,264,0.0,0.0,66,0.00,,,0.00,0.0,meteohub,2013-02-28 01:06:00,
2013-02-27 19:11:00,52.3,42.1,30.03,West,264,0.0,0.0,68,0.00,,,0.00,0.0,meteohub,2013-02-28 01:11:00,
2013-02-27 19:16:00,51.6,41.7,30.03,West,264,0.0,0.0,69,0.00,,,0.00,0.0,meteohub,2013-02-28 01:16:00,
2013-02-27 19:21:00,51.4,42.4,30.03,West,264,0.0,0.0,71,0.00,,,0.00,0.0,meteohub,2013-02-28 01:21:00,
2013-02-27 19:26:00,51.3,42.3,30.03,West,264,0.0,0.0,71,0.00,,,0.00,0.0,meteohub,2013-02-28 01:26:00,
2013-02-27 19:31:00,51.1,41.7,30.03,West,264,0.0,0.0,70,0.00,,,0.00,0.0,meteohub,2013-02-28 01:31:00,
2013-02-27 19:36:00,50.7,40.1,30.04,West,264,0.0,0.0,67,0.00,,,0.00,0.0,meteohub,2013-02-28 01:36:00,
2013-02-27 19:42:00,50.5,40.5,30.04,West,264,0.0,0.0,68,0.00,,,0.00,0.0,meteohub,2013-02-28 01:42:00,
2013-02-27 19:47:00,50.4,40.3,30.04,West,264,0.0,0.0,68,0.00,,,0.00,0.0,meteohub,2013-02-28 01:47:00,
2013-02-27 19:52:00,49.8,40.5,30.04,West,264,0.0,0.0,70,0.00,,,0.00,0.0,meteohub,2013-02-28 01:52:00,
2013-02-27 19:57:00,49.6,40.3,30.04,West,264,0.0,0.0,70,0.00,,,0.00,0.0,meteohub,2013-02-28 01:57:00,
2013-02-27 20:02:00,49.3,40.3,30.04,West,264,0.0,0.0,71,0.00,,,0.00,0.0,meteohub,2013-02-28 02:02:00,
2013-02-27 20:07:00,49.5,40.1,30.04,West,264,0.0,0.0,70,0.00,,,0.00,0.0,meteohub,2013-02-28 02:07:00,
2013-02-27 20:12:00,49.6,40.3,30.04,West,264,0.0,0.0,70,0.00,,,0.00,0.0,meteohub,2013-02-28 02:12:00,
2013-02-27 20:17:00,49.5,40.1,30.04,West,264,0.0,2.0,70,0.00,,,0.00,0.0,meteohub,2013-02-28 02:17:00,
2013-02-27 20:22:00,49.3,40.3,30.05,West,264,0.0,2.0,71,0.00,,,0.00,0.0,meteohub,2013-02-28 02:22:00,
2013-02-27 20:27:00,49.1,39.7,30.05,West,264,0.0,2.0,70,0.00,,,0.00,0.0,meteohub,2013-02-28 02:27:00,
2013-02-27 20:32:00,49.1,40.1,30.05,SW,215,0.0,2.0,71,0.00,,,0.00,0.0,meteohub,2013-02-28 02:32:00,
2013-02-27 20:37:00,49.5,40.1,30.05,SSW,207,0.0,3.0,70,0.00,,,0.00,0.0,meteohub,2013-02-28 02:37:00,
2013-02-27 20:42:00,50.0,39.0,30.05,SSW,207,0.0,3.0,66,0.00,,,0.00,0.0,meteohub,2013-02-28 02:42:00,
2013-02-27 20:47:00,51.1,37.8,30.06,SW,226,2.0,3.0,60,0.00,,,0.00,0.0,meteohub,2013-02-28 02:47:00,
2013-02-27 20:52:00,52.2,36.5,30.06,WSW,239,2.0,3.0,55,0.00,,,0.00,0.0,meteohub,2013-02-28 02:52:00,
2013-02-27 20:57:00,52.9,35.8,30.06,WSW,240,1.0,7.0,52,0.00,,,0.00,0.0,meteohub,2013-02-28 02:57:00,
2013-02-27 21:02:00,53.1,36.0,30.06,WSW,244,5.0,7.0,52,0.00,,,0.00,0.0,meteohub,2013-02-28 03:02:00,
2013-02-27 21:07:00,52.9,35.8,30.06,WSW,252,0.0,7.0,52,0.00,,,0.00,0.0,meteohub,2013-02-28 03:07:00,
2013-02-27 21:12:00,52.9,35.2,30.07,SW,226,0.0,7.0,51,0.00,,,0.00,0.0,meteohub,2013-02-28 03:12:00,
2013-02-27 21:17:00,52.7,35.1,30.07,WSW,258,1.0,7.0,51,0.00,,,0.00,0.0,meteohub,2013-02-28 03:17:00,
2013-02-27 21:22:00,52.3,34.2,30.07,WSW,244,2.0,7.0,50,0.00,,,0.00,0.0,meteohub,2013-02-28 03:22:00,
2013-02-27 21:27:00,52.3,34.2,30.07,WSW,248,2.0,9.0,50,0.00,,,0.00,0.0,meteohub,2013-02-28 03:27:00,
2013-02-27 21:32:00,52.2,34.2,30.07,West,268,2.0,9.0,50,0.00,,,0.00,0.0,meteohub,2013-02-28 03:32:00,
2013-02-27 21:37:00,52.0,34.3,30.07,SW,231,0.0,9.0,51,0.00,,,0.00,0.0,meteohub,2013-02-28 03:37:00,
2013-02-27 21:42:00,51.8,33.8,30.07,WSW,253,4.0,9.0,50,0.00,,,0.00,0.0,meteohub,2013-02-28 03:42:00,
2013-02-27 21:47:00,51.6,33.6,30.07,WSW,256,0.0,6.0,50,0.00,,,0.00,0.0,meteohub,2013-02-28 03:47:00,
2013-02-27 21:52:00,51.6,34.2,30.08,WSW,253,0.0,6.0,51,0.00,,,0.00,0.0,meteohub,2013-02-28 03:52:00,
2013-02-27 22:02:00,51.1,33.6,30.08,West,268,3.0,5.0,51,0.00,,,0.00,0.0,meteohub,2013-02-28 04:02:00,
2013-02-27 22:07:00,51.1,33.1,30.08,WSW,258,0.0,6.0,50,0.00,,,0.00,0.0,meteohub,2013-02-28 04:07:00,
2013-02-27 22:12:00,50.7,33.3,30.08,WSW,258,0.0,6.0,51,0.00,,,0.00,0.0,meteohub,2013-02-28 04:12:00,
2013-02-27 22:17:00,50.5,33.1,30.08,WSW,246,0.0,5.0,51,0.00,,,0.00,0.0,meteohub,2013-02-28 04:17:00,
2013-02-27 22:22:00,50.4,33.8,30.09,WSW,246,0.0,5.0,53,0.00,,,0.00,0.0,meteohub,2013-02-28 04:22:00,
2013-02-27 22:27:00,50.4,33.8,30.09,WSW,246,2.0,3.0,53,0.00,,,0.00,0.0,meteohub,2013-02-28 04:27:00,
2013-02-27 22:32:00,50.2,33.6,30.09,SW,215,0.0,3.0,53,0.00,,,0.00,0.0,meteohub,2013-02-28 04:32:00,
2013-02-27 22:37:00,50.0,33.6,30.09,SSW,202,1.0,4.0,53,0.00,,,0.00,0.0,meteohub,2013-02-28 04:37:00,
2013-02-27 22:42:00,50.0,33.1,30.09,SSW,206,0.0,4.0,52,0.00,,,0.00,0.0,meteohub,2013-02-28 04:42:00,
2013-02-27 22:47:00,49.8,33.4,30.10,SW,229,0.0,4.0,53,0.00,,,0.00,0.0,meteohub,2013-02-28 04:47:00,
2013-02-27 22:52:00,49.8,33.4,30.10,SW,234,0.0,4.0,53,0.00,,,0.00,0.0,meteohub,2013-02-28 04:52:00,
2013-02-27 22:57:00,49.6,33.6,30.10,SW,234,0.0,3.0,54,0.00,,,0.00,0.0,meteohub,2013-02-28 04:57:00,
2013-02-27 23:00:00,49.5,34.0,30.10,SW,234,0.0,3.0,55,0.00,,,0.00,0.0,meteohub,2013-02-28 05:00:00,
2013-02-27 23:05:00,49.3,33.8,30.10,SW,234,0.0,3.0,55,0.00,,,0.00,0.0,meteohub,2013-02-28 05:05:00,
2013-02-27 23:10:00,48.9,34.0,30.10,SW,234,0.0,3.0,56,0.00,,,0.00,0.0,meteohub,2013-02-28 05:10:00,
2013-02-27 23:15:00,48.7,33.3,30.10,SW,223,0.0,5.0,55,0.00,,,0.00,0.0,meteohub,2013-02-28 05:15:00,
2013-02-27 23:20:00,48.4,33.8,30.10,SW,221,0.0,5.0,57,0.00,,,0.00,0.0,meteohub,2013-02-28 05:20:00,
2013-02-27 23:25:00,47.8,33.8,30.10,SW,221,0.0,5.0,58,0.00,,,0.00,0.0,meteohub,2013-02-28 05:25:00,
2013-02-27 23:30:00,47.3,34.2,30.10,SW,221,2.0,5.0,60,0.00,,,0.00,0.0,meteohub,2013-02-28 05:30:00,
2013-02-27 23:35:00,46.8,34.0,30.10,SW,221,0.0,3.0,61,0.00,,,0.00,0.0,meteohub,2013-02-28 05:35:00,
2013-02-27 23:40:00,46.6,33.8,30.10,SW,221,0.0,3.0,61,0.00,,,0.00,0.0,meteohub,2013-02-28 05:40:00,
2013-02-27 23:45:00,46.4,33.6,30.09,SW,221,0.0,3.0,61,0.00,,,0.00,0.0,meteohub,2013-02-28 05:45:00,
2013-02-27 23:50:00,46.6,33.8,30.09,SW,221,0.0,3.0,61,0.00,,,0.00,0.0,meteohub,2013-02-28 05:50:00,
2013-02-27 23:55:00,46.8,33.6,30.10,SW,221,1.0,2.0,60,0.00,,,0.00,0.0,meteohub,2013-02-28 05:55:00,